Time;durP1;ratioP1;P1;durP2;ratioP2;P2;SDS_P1;SDS_P2;PMS_P1;PMS_P2;Temp;Humidity;BMP_temperature;BMP_pressure;BME280_temperature;BME280_humidity;BME280_pressure;Samples;Min_cycle;Max_cycle;Signal;HPM_P1;HPM_P2
2022/08/22 00:01:08;;;;;;;2.35;1.23;;;;;;;;;;4970934;28;20432;-61
2022/08/22 00:03:44;;;;;;;4.55;2.30;;;;;;;;;;4951732;28;20104;-61
2022/08/22 00:06:29;;;;;;;4.35;2.35;;;;;;;;;;4951744;28;20400;-62
2022/08/22 00:09:16;;;;;;;5.80;2.72;;;;;;;;;;4968846;28;20536;-61
2022/08/22 00:11:51;;;;;;;6.18;2.90;;;;;;;;;;4951497;28;20421;-61
2022/08/22 00:14:24;;;;;;;6.15;3.03;;;;;;;;;;4951121;28;20380;-61
2022/08/22 00:16:59;;;;;;;7.28;3.95;;;;;;;;;;4968686;28;20491;-61
2022/08/22 00:19:36;;;;;;;5.75;3.38;;;;;;;;;;4969102;28;20462;-61
2022/08/22 00:22:19;;;;;;;4.60;1.88;;;;;;;;;;4951564;28;20336;-62
2022/08/22 00:24:57;;;;;;;4.78;2.60;;;;;;;;;;4951389;28;20460;-60
2022/08/22 00:27:26;;;;;;;5.75;2.40;;;;;;;;;;4950906;28;20049;-62
2022/08/22 00:30:09;;;;;;;4.50;2.67;;;;;;;;;;4950685;28;20411;-61
2022/08/22 00:32:46;;;;;;;5.07;2.97;;;;;;;;;;4968470;28;20460;-63
2022/08/22 00:35:20;;;;;;;6.20;3.28;;;;;;;;;;4950857;28;20407;-61
2022/08/22 00:38:06;;;;;;;6.53;3.42;;;;;;;;;;4950709;28;20429;-61
2022/08/22 00:40:40;;;;;;;3.97;2.65;;;;;;;;;;4968499;28;20436;-61
2022/08/22 00:43:08;;;;;;;5.70;2.72;;;;;;;;;;4968368;28;20376;-61
2022/08/22 00:46:10;;;;;;;3.75;2.70;;;;;;;;;;4967864;28;20529;-62
2022/08/22 00:48:45;;;;;;;3.67;2.50;;;;;;;;;;4968289;28;20440;-62
2022/08/22 00:51:19;;;;;;;6.00;2.83;;;;;;;;;;4971423;28;20297;-61
2022/08/22 00:54:03;;;;;;;4.93;3.22;;;;;;;;;;4950887;28;20424;-61
2022/08/22 00:56:47;;;;;;;7.30;2.70;;;;;;;;;;4968115;28;20514;-62
2022/08/22 00:59:35;;;;;;;5.25;2.80;;;;;;;;;;4968050;28;20404;-61
2022/08/22 01:02:16;;;;;;;3.83;2.50;;;;;;;;;;4953817;28;20467;-61
2022/08/22 01:05:05;;;;;;;5.50;2.67;;;;;;;;;;4984223;28;20340;-61
2022/08/22 01:07:41;;;;;;;7.00;3.17;;;;;;;;;;4988574;28;20418;-61
2022/08/22 01:10:44;;;;;;;5.00;3.10;;;;;;;;;;4970172;28;20037;-61
2022/08/22 01:13:40;;;;;;;4.95;3.35;;;;;;;;;;4987399;28;20409;-61
2022/08/22 01:16:24;;;;;;;6.03;3.35;;;;;;;;;;4988003;28;20371;-63
2022/08/22 01:18:54;;;;;;;8.38;3.17;;;;;;;;;;4988231;28;20112;-61
2022/08/22 01:21:36;;;;;;;5.03;2.78;;;;;;;;;;4987851;28;20467;-61
2022/08/22 01:24:22;;;;;;;4.68;3.20;;;;;;;;;;4970318;28;20094;-61
2022/08/22 01:27:09;;;;;;;6.50;3.67;;;;;;;;;;4987463;28;20029;-60
2022/08/22 01:29:53;;;;;;;6.30;3.47;;;;;;;;;;4987788;28;20417;-61
2022/08/22 01:32:30;;;;;;;6.25;3.05;;;;;;;;;;4987821;28;20344;-61
2022/08/22 01:35:04;;;;;;;6.10;3.50;;;;;;;;;;4987705;28;20463;-62
2022/08/22 01:37:29;;;;;;;5.90;3.10;;;;;;;;;;4969499;28;20336;-61
2022/08/22 01:40:13;;;;;;;5.63;3.25;;;;;;;;;;4989402;28;20047;-61
2022/08/22 01:43:12;;;;;;;6.32;3.10;;;;;;;;;;4987584;28;20531;-61
2022/08/22 01:46:16;;;;;;;5.75;3.17;;;;;;;;;;4987155;28;20478;-61
2022/08/22 01:48:50;;;;;;;6.22;3.35;;;;;;;;;;4987400;28;20436;-61
2022/08/22 01:51:18;;;;;;;6.70;3.55;;;;;;;;;;4987593;28;20451;-61
2022/08/22 01:53:52;;;;;;;8.05;4.18;;;;;;;;;;4989395;28;20444;-61
2022/08/22 01:56:20;;;;;;;5.53;3.28;;;;;;;;;;4971388;28;20467;-61
2022/08/22 01:59:07;;;;;;;8.27;3.97;;;;;;;;;;4991030;28;20217;-62
2022/08/22 02:01:39;;;;;;;5.20;3.55;;;;;;;;;;4973634;28;20028;-61
2022/08/22 02:04:31;;;;;;;6.32;3.58;;;;;;;;;;4991172;28;20478;-61
2022/08/22 02:07:15;;;;;;;8.20;4.15;;;;;;;;;;4952693;28;20412;-61
2022/08/22 02:09:45;;;;;;;7.25;4.35;;;;;;;;;;4991549;28;20463;-61
2022/08/22 02:12:41;;;;;;;5.03;3.63;;;;;;;;;;4972841;28;20344;-61
2022/08/22 02:15:13;;;;;;;7.03;3.78;;;;;;;;;;4991540;28;20025;-61
2022/08/22 02:17:51;;;;;;;5.90;3.65;;;;;;;;;;4991095;28;20358;-61
2022/08/22 02:20:23;;;;;;;5.77;3.53;;;;;;;;;;4991349;28;20028;-60
2022/08/22 02:23:14;;;;;;;7.63;3.17;;;;;;;;;;4990855;28;20448;-61
2022/08/22 02:26:06;;;;;;;4.93;3.15;;;;;;;;;;4992036;28;20382;-60
2022/08/22 02:28:46;;;;;;;5.53;3.00;;;;;;;;;;4973063;28;20407;-61
2022/08/22 02:31:15;;;;;;;5.35;3.85;;;;;;;;;;4991910;28;20457;-64
2022/08/22 02:33:44;;;;;;;6.38;3.60;;;;;;;;;;4990307;28;20507;-62
2022/08/22 02:36:38;;;;;;;6.43;3.97;;;;;;;;;;4991061;28;20025;-61
2022/08/22 02:39:09;;;;;;;5.55;3.38;;;;;;;;;;4987389;28;20452;-61
2022/08/22 02:41:58;;;;;;;5.85;4.07;;;;;;;;;;4972628;28;20501;-61
2022/08/22 02:44:34;;;;;;;7.45;4.22;;;;;;;;;;4972076;28;20351;-62
2022/08/22 02:47:07;;;;;;;5.38;3.65;;;;;;;;;;4972127;28;20313;-61
2022/08/22 02:49:40;;;;;;;6.40;3.55;;;;;;;;;;4972525;28;20367;-60
2022/08/22 02:52:16;;;;;;;4.85;3.50;;;;;;;;;;4989793;28;20414;-60
2022/08/22 02:54:52;;;;;;;6.30;4.05;;;;;;;;;;4972420;28;20317;-60
2022/08/22 02:57:34;;;;;;;6.68;3.40;;;;;;;;;;4972875;28;20048;-61
2022/08/22 03:00:14;;;;;;;4.03;2.92;;;;;;;;;;4973291;28;20383;-61
2022/08/22 03:02:55;;;;;;;5.78;4.10;;;;;;;;;;4989913;28;20478;-61
2022/08/22 03:05:34;;;;;;;6.35;3.55;;;;;;;;;;4991607;28;20408;-61
2022/08/22 03:08:18;;;;;;;8.00;4.03;;;;;;;;;;4971153;28;20339;-61
2022/08/22 03:11:14;;;;;;;9.10;4.00;;;;;;;;;;4989931;28;20432;-60
2022/08/22 03:13:45;;;;;;;5.30;3.88;;;;;;;;;;4963802;28;20481;-61
2022/08/22 03:16:34;;;;;;;3.92;3.45;;;;;;;;;;4989718;28;20379;-61
2022/08/22 03:19:10;;;;;;;4.68;3.47;;;;;;;;;;4989450;28;20432;-61
2022/08/22 03:21:41;;;;;;;6.63;3.75;;;;;;;;;;4972195;28;20407;-60
2022/08/22 03:24:19;;;;;;;6.22;4.07;;;;;;;;;;4989437;28;20064;-61
2022/08/22 03:26:52;;;;;;;7.97;4.40;;;;;;;;;;4971977;28;20483;-61
2022/08/22 03:29:22;;;;;;;4.32;2.95;;;;;;;;;;4971533;28;20497;-61
2022/08/22 03:32:06;;;;;;;9.55;3.70;;;;;;;;;;4971381;28;20392;-61
2022/08/22 03:34:32;;;;;;;5.32;3.60;;;;;;;;;;4971568;28;20060;-61
2022/08/22 03:37:10;;;;;;;4.25;3.00;;;;;;;;;;4971898;28;20316;-61
2022/08/22 03:39:56;;;;;;;5.75;3.05;;;;;;;;;;4989686;28;20356;-61
2022/08/22 03:43:00;;;;;;;4.10;3.25;;;;;;;;;;4971340;28;20371;-61
2022/08/22 03:46:03;;;;;;;6.70;3.88;;;;;;;;;;4988890;28;20063;-61
2022/08/22 03:48:50;;;;;;;4.30;3.65;;;;;;;;;;4971266;28;20436;-61
2022/08/22 03:51:32;;;;;;;6.88;4.10;;;;;;;;;;4988821;28;20123;-61
2022/08/22 03:54:07;;;;;;;7.13;3.83;;;;;;;;;;4971358;28;20363;-60
2022/08/22 03:56:55;;;;;;;6.05;3.97;;;;;;;;;;4970596;28;20325;-62
2022/08/22 03:59:29;;;;;;;5.55;4.18;;;;;;;;;;4988792;28;20389;-61
2022/08/22 04:02:20;;;;;;;5.80;4.35;;;;;;;;;;4988761;28;20029;-61
2022/08/22 04:04:45;;;;;;;5.93;4.22;;;;;;;;;;4971987;28;20406;-61
2022/08/22 04:07:41;;;;;;;6.47;4.80;;;;;;;;;;4988756;28;20367;-61
2022/08/22 04:10:27;;;;;;;5.65;4.25;;;;;;;;;;4988531;28;20080;-61
2022/08/22 04:13:14;;;;;;;6.35;4.88;;;;;;;;;;4988557;28;20124;-61
2022/08/22 04:16:04;;;;;;;8.75;4.32;;;;;;;;;;4988421;28;20410;-61
2022/08/22 04:18:48;;;;;;;7.10;4.30;;;;;;;;;;4988325;28;20037;-61
2022/08/22 04:21:34;;;;;;;7.03;3.70;;;;;;;;;;4988451;28;20463;-60
2022/08/22 04:24:11;;;;;;;6.20;4.78;;;;;;;;;;4988091;28;20356;-61
2022/08/22 04:26:57;;;;;;;7.93;4.72;;;;;;;;;;4988321;28;20343;-61
2022/08/22 04:29:32;;;;;;;8.98;4.82;;;;;;;;;;4971086;28;20424;-61
2022/08/22 04:32:06;;;;;;;6.57;4.43;;;;;;;;;;4971284;28;20021;-60
2022/08/22 04:34:36;;;;;;;5.50;4.25;;;;;;;;;;4988407;28;20432;-61
2022/08/22 04:37:22;;;;;;;8.25;5.05;;;;;;;;;;4989114;28;20347;-61
2022/08/22 04:40:22;;;;;;;7.63;5.68;;;;;;;;;;4970935;28;20494;-61
2022/08/22 04:43:08;;;;;;;6.38;4.78;;;;;;;;;;4969980;28;20542;-61
2022/08/22 04:45:38;;;;;;;8.50;5.03;;;;;;;;;;4987228;28;20089;-61
2022/08/22 04:48:28;;;;;;;8.63;5.57;;;;;;;;;;4988207;28;20367;-61
2022/08/22 04:51:01;;;;;;;8.30;4.75;;;;;;;;;;4988248;28;20436;-61
2022/08/22 04:53:51;;;;;;;7.47;5.30;;;;;;;;;;4970737;28;20428;-60
2022/08/22 04:56:35;;;;;;;9.15;5.00;;;;;;;;;;4961741;28;20452;-61
2022/08/22 04:59:06;;;;;;;6.65;5.15;;;;;;;;;;4968718;28;20071;-60
2022/08/22 05:01:56;;;;;;;7.72;5.43;;;;;;;;;;4950906;28;20451;-61
2022/08/22 05:04:24;;;;;;;7.90;5.43;;;;;;;;;;4968600;28;20026;-60
2022/08/22 05:06:53;;;;;;;7.50;5.50;;;;;;;;;;4968510;28;20478;-60
2022/08/22 05:09:25;;;;;;;6.93;4.78;;;;;;;;;;4951287;28;20460;-60
2022/08/22 05:11:53;;;;;;;8.75;5.65;;;;;;;;;;4950738;28;20423;-60
2022/08/22 05:14:24;;;;;;;6.30;5.28;;;;;;;;;;4968862;28;20511;-60
2022/08/22 05:16:52;;;;;;;6.70;4.88;;;;;;;;;;4950820;28;20380;-61
2022/08/22 05:19:33;;;;;;;12.52;6.05;;;;;;;;;;4968299;28;20457;-61
2022/08/22 05:22:00;;;;;;;7.28;5.57;;;;;;;;;;4950593;28;20428;-61
2022/08/22 05:24:31;;;;;;;8.30;5.13;;;;;;;;;;4950865;28;20057;-61
2022/08/22 05:27:01;;;;;;;5.80;4.72;;;;;;;;;;4950629;28;20483;-61
2022/08/22 05:29:29;;;;;;;7.05;5.55;;;;;;;;;;4968167;28;20391;-60
2022/08/22 05:32:00;;;;;;;7.40;5.32;;;;;;;;;;4954847;28;20447;-61
2022/08/22 05:34:34;;;;;;;7.03;4.88;;;;;;;;;;4972341;28;20111;-60
2022/08/22 05:37:09;;;;;;;7.50;5.47;;;;;;;;;;4954255;28;20376;-61
2022/08/22 05:39:37;;;;;;;6.53;5.25;;;;;;;;;;4972070;28;20458;-61
2022/08/22 05:42:03;;;;;;;8.65;5.70;;;;;;;;;;4938024;28;20460;-61
2022/08/22 05:44:35;;;;;;;9.70;5.65;;;;;;;;;;4954744;28;20444;-61
2022/08/22 05:47:00;;;;;;;6.25;4.95;;;;;;;;;;4991710;28;20498;-61
2022/08/22 05:49:46;;;;;;;8.15;5.78;;;;;;;;;;4992743;28;20483;-60
2022/08/22 05:52:32;;;;;;;7.80;5.03;;;;;;;;;;4990198;28;20462;-61
2022/08/22 05:55:25;;;;;;;7.07;5.28;;;;;;;;;;4992259;28;20112;-60
2022/08/22 05:58:18;;;;;;;9.55;6.80;;;;;;;;;;4991449;28;20399;-61
2022/08/22 06:00:47;;;;;;;8.65;5.82;;;;;;;;;;4989959;28;20025;-61
2022/08/22 06:03:17;;;;;;;6.70;5.95;;;;;;;;;;4991446;28;20383;-60
2022/08/22 06:05:46;;;;;;;6.53;5.22;;;;;;;;;;4991637;28;20396;-61
2022/08/22 06:08:33;;;;;;;7.50;6.13;;;;;;;;;;4992111;28;20332;-60
2022/08/22 06:11:04;;;;;;;9.20;5.65;;;;;;;;;;4990133;28;20555;-60
2022/08/22 06:13:50;;;;;;;9.02;5.80;;;;;;;;;;4991541;28;20161;-61
2022/08/22 06:16:20;;;;;;;8.63;5.30;;;;;;;;;;4990501;28;20433;-60
2022/08/22 06:18:48;;;;;;;7.28;5.65;;;;;;;;;;4991231;28;20351;-60
2022/08/22 06:21:21;;;;;;;10.73;6.60;;;;;;;;;;4991121;28;20401;-60
2022/08/22 06:23:50;;;;;;;7.15;5.43;;;;;;;;;;4989712;28;20451;-60
2022/08/22 06:26:17;;;;;;;9.45;6.07;;;;;;;;;;4993612;28;20493;-60
2022/08/22 06:28:45;;;;;;;8.68;6.15;;;;;;;;;;4989803;28;20033;-60
2022/08/22 06:31:16;;;;;;;7.65;6.05;;;;;;;;;;4989970;28;20419;-62
2022/08/22 06:33:43;;;;;;;7.78;5.82;;;;;;;;;;4989441;28;20482;-61
2022/08/22 06:36:29;;;;;;;8.60;6.03;;;;;;;;;;4989531;28;20046;-60
2022/08/22 06:39:05;;;;;;;8.40;5.60;;;;;;;;;;4991260;28;20423;-60
2022/08/22 06:41:33;;;;;;;7.95;5.38;;;;;;;;;;4989925;28;20342;-60
2022/08/22 06:44:01;;;;;;;7.55;5.53;;;;;;;;;;4989383;28;20382;-61
2022/08/22 06:46:28;;;;;;;8.55;6.00;;;;;;;;;;4988843;28;20616;-61
2022/08/22 06:48:55;;;;;;;11.27;6.68;;;;;;;;;;4989382;28;20343;-61
2022/08/22 06:51:21;;;;;;;6.88;5.45;;;;;;;;;;4989289;28;20448;-60
2022/08/22 06:53:52;;;;;;;10.90;6.55;;;;;;;;;;4990935;28;20379;-61
2022/08/22 06:56:23;;;;;;;9.88;5.55;;;;;;;;;;4989853;28;20452;-60
2022/08/22 06:58:51;;;;;;;8.43;6.28;;;;;;;;;;4990107;28;20451;-60
2022/08/22 07:01:20;;;;;;;8.88;6.45;;;;;;;;;;4989018;28;20021;-60
2022/08/22 07:03:47;;;;;;;;;;;;;;;;;;4991368;28;20448;-60
2022/08/22 07:06:18;;;;;;;8.80;5.90;;;;;;;;;;4989835;28;19917;-61
2022/08/22 07:08:44;;;;;;;8.63;5.78;;;;;;;;;;4991395;28;20446;-60
2022/08/22 07:11:43;;;;;;;8.77;6.88;;;;;;;;;;4990578;28;20344;-60
2022/08/22 07:14:11;;;;;;;10.18;6.53;;;;;;;;;;4972899;28;20533;-61
2022/08/22 07:16:42;;;;;;;8.18;6.53;;;;;;;;;;4991061;28;20518;-61
2022/08/22 07:19:11;;;;;;;10.52;6.63;;;;;;;;;;4990033;28;20390;-61
2022/08/22 07:21:46;;;;;;;8.75;6.88;;;;;;;;;;4991388;28;20356;-60
2022/08/22 07:24:16;;;;;;;10.15;6.63;;;;;;;;;;4988475;28;20467;-60
2022/08/22 07:27:04;;;;;;;9.98;6.95;;;;;;;;;;4988245;28;20071;-61
2022/08/22 07:29:38;;;;;;;8.43;6.00;;;;;;;;;;4989859;28;20462;-61
2022/08/22 07:32:12;;;;;;;7.97;5.90;;;;;;;;;;4989982;28;20033;-61
2022/08/22 07:35:09;;;;;;;9.18;6.72;;;;;;;;;;4990081;28;20395;-60
2022/08/22 07:37:44;;;;;;;11.35;7.40;;;;;;;;;;4988022;28;20392;-60
2022/08/22 07:40:17;;;;;;;9.20;6.88;;;;;;;;;;4989604;28;20534;-61
2022/08/22 07:42:48;;;;;;;9.43;6.60;;;;;;;;;;4989620;28;20436;-61
2022/08/22 07:45:27;;;;;;;10.32;7.15;;;;;;;;;;4988192;28;20486;-61
2022/08/22 07:48:11;;;;;;;;;;;;;;;;;;4989015;28;20025;-61
2022/08/22 07:51:00;;;;;;;9.48;6.28;;;;;;;;;;4989512;28;19960;-61
2022/08/22 07:53:29;;;;;;;;;;;;;;;;;;4991814;28;20061;-61
2022/08/22 07:55:55;;;;;;;9.27;6.88;;;;;;;;;;4988037;28;20319;-60
2022/08/22 07:58:23;;;;;;;10.57;5.60;;;;;;;;;;4988043;28;20105;-61
2022/08/22 08:00:49;;;;;;;8.57;6.27;;;;;;;;;;4989245;28;20044;-61
2022/08/22 08:03:16;;;;;;;9.27;6.90;;;;;;;;;;4988084;28;20570;-61
2022/08/22 08:05:43;;;;;;;7.88;5.95;;;;;;;;;;4987490;28;20337;-61
2022/08/22 08:08:19;;;;;;;8.27;6.60;;;;;;;;;;4987452;28;20360;-61
2022/08/22 08:10:47;;;;;;;9.27;6.88;;;;;;;;;;4988814;28;20510;-61
2022/08/22 08:13:19;;;;;;;9.13;6.68;;;;;;;;;;4989209;28;20404;-61
2022/08/22 08:15:45;;;;;;;8.90;6.63;;;;;;;;;;4987625;28;20386;-61
2022/08/22 08:18:13;;;;;;;7.13;5.88;;;;;;;;;;4987924;28;20359;-63
2022/08/22 08:20:38;;;;;;;10.23;7.18;;;;;;;;;;4987471;28;20436;-62
2022/08/22 08:23:07;;;;;;;9.73;7.20;;;;;;;;;;4989763;28;20329;-61
2022/08/22 08:26:05;;;;;;;11.00;7.50;;;;;;;;;;4989035;28;20402;-62
2022/08/22 08:28:36;;;;;;;10.27;6.63;;;;;;;;;;4971852;28;20451;-61
2022/08/22 08:31:08;;;;;;;9.65;6.45;;;;;;;;;;4987152;28;20351;-61
2022/08/22 08:33:36;;;;;;;11.38;8.43;;;;;;;;;;4989440;28;20372;-62
2022/08/22 08:36:10;;;;;;;11.60;7.93;;;;;;;;;;4987784;28;20416;-61
2022/08/22 08:38:44;;;;;;;11.15;7.07;;;;;;;;;;4987547;28;20340;-61
2022/08/22 08:41:27;;;;;;;14.40;7.93;;;;;;;;;;4987130;28;20518;-61
2022/08/22 08:44:22;;;;;;;12.77;7.22;;;;;;;;;;4988521;28;20452;-61
2022/08/22 08:46:47;;;;;;;10.18;7.55;;;;;;;;;;4986752;28;20072;-61
2022/08/22 08:49:41;;;;;;;11.95;6.72;;;;;;;;;;4988745;28;20028;-61
2022/08/22 08:52:17;;;;;;;10.32;7.15;;;;;;;;;;4971437;28;20364;-61
2022/08/22 08:54:59;;;;;;;8.82;6.47;;;;;;;;;;4988822;28;20363;-61
2022/08/22 08:57:58;;;;;;;7.97;6.13;;;;;;;;;;4988467;28;20466;-61
2022/08/22 09:00:44;;;;;;;10.32;7.30;;;;;;;;;;4988578;28;20422;-61
2022/08/22 09:03:13;;;;;;;10.20;6.90;;;;;;;;;;4988220;28;20460;-61
2022/08/22 09:05:58;;;;;;;10.13;6.97;;;;;;;;;;4987560;28;20466;-61
2022/08/22 09:08:48;;;;;;;9.07;6.65;;;;;;;;;;4947714;28;20037;-61
2022/08/22 09:11:49;;;;;;;7.45;5.40;;;;;;;;;;4986781;28;20419;-61
2022/08/22 09:14:39;;;;;;;8.23;5.60;;;;;;;;;;4989367;28;20574;-61
2022/08/22 09:17:23;;;;;;;7.47;5.07;;;;;;;;;;4987957;28;20317;-61
2022/08/22 09:20:16;;;;;;;7.07;5.70;;;;;;;;;;4988271;28;20348;-61
2022/08/22 09:23:12;;;;;;;7.07;5.38;;;;;;;;;;4988552;28;20418;-62
2022/08/22 09:25:44;;;;;;;6.68;5.65;;;;;;;;;;4988260;28;20475;-61
2022/08/22 09:28:15;;;;;;;6.88;5.57;;;;;;;;;;4988129;28;20448;-61
2022/08/22 09:30:47;;;;;;;8.43;5.47;;;;;;;;;;4986592;28;20053;-61
2022/08/22 09:33:16;;;;;;;8.18;5.63;;;;;;;;;;4989341;28;20024;-61
2022/08/22 09:36:02;;;;;;;8.88;5.82;;;;;;;;;;4988930;28;20403;-62
2022/08/22 09:38:44;;;;;;;6.97;5.20;;;;;;;;;;4987961;28;20347;-60
2022/08/22 09:41:46;;;;;;;7.85;5.72;;;;;;;;;;4988174;28;20465;-60
2022/08/22 09:44:24;;;;;;;8.35;6.00;;;;;;;;;;4989067;28;20029;-60
2022/08/22 09:47:08;;;;;;;7.60;5.57;;;;;;;;;;4987646;28;20418;-60
2022/08/22 09:49:42;;;;;;;7.72;5.93;;;;;;;;;;4987668;28;20436;-61
2022/08/22 09:52:40;;;;;;;6.03;4.65;;;;;;;;;;4987769;28;20482;-61
2022/08/22 09:55:16;;;;;;;6.35;4.82;;;;;;;;;;4950817;28;20347;-60
2022/08/22 09:58:22;;;;;;;7.07;4.80;;;;;;;;;;4987836;28;20406;-61
2022/08/22 10:01:08;;;;;;;7.13;4.78;;;;;;;;;;4988044;28;20395;-61
2022/08/22 10:04:11;;;;;;;6.13;4.43;;;;;;;;;;4987833;28;20566;-60
2022/08/22 10:07:00;;;;;;;6.18;4.95;;;;;;;;;;4988176;28;20490;-60
2022/08/22 10:09:26;;;;;;;;;;;;;;;;;;4989016;28;20075;-60
2022/08/22 10:12:04;;;;;;;7.90;4.93;;;;;;;;;;4986604;28;20333;-60
2022/08/22 10:14:55;;;;;;;6.53;5.07;;;;;;;;;;4986134;28;20506;-61
2022/08/22 10:17:28;;;;;;;7.55;4.55;;;;;;;;;;4989779;28;20458;-60
2022/08/22 10:20:00;;;;;;;6.05;4.47;;;;;;;;;;4990095;28;20064;-61
2022/08/22 10:22:35;;;;;;;6.15;4.55;;;;;;;;;;4992689;28;20471;-60
2022/08/22 10:25:08;;;;;;;7.07;4.90;;;;;;;;;;4992732;28;20062;-60
2022/08/22 10:27:36;;;;;;;6.38;4.60;;;;;;;;;;4992797;28;20581;-60
2022/08/22 10:30:16;;;;;;;6.93;4.75;;;;;;;;;;4991197;28;20375;-61
2022/08/22 10:33:09;;;;;;;5.88;4.68;;;;;;;;;;4992855;28;20373;-61
2022/08/22 10:36:19;;;;;;;6.15;4.72;;;;;;;;;;4991492;28;20459;-60
2022/08/22 10:38:49;;;;;;;11.25;4.45;;;;;;;;;;4989883;28;20440;-60
2022/08/22 10:42:00;;;;;;;8.60;4.38;;;;;;;;;;4989836;28;20465;-61
2022/08/22 10:44:41;;;;;;;6.55;4.78;;;;;;;;;;4957511;28;20051;-60
2022/08/22 10:47:16;;;;;;;7.97;5.03;;;;;;;;;;4953089;28;20460;-61
2022/08/22 10:49:49;;;;;;;6.63;4.57;;;;;;;;;;4953304;28;20344;-60
2022/08/22 10:52:24;;;;;;;6.68;4.97;;;;;;;;;;4971861;28;20436;-61
2022/08/22 10:55:11;;;;;;;7.15;4.05;;;;;;;;;;4970982;28;20440;-60
2022/08/22 10:57:59;;;;;;;10.05;5.15;;;;;;;;;;4952917;28;20464;-61
2022/08/22 11:00:50;;;;;;;6.40;4.45;;;;;;;;;;4953705;28;20416;-60
2022/08/22 11:03:38;;;;;;;9.13;4.53;;;;;;;;;;4953673;28;20344;-60
2022/08/22 11:06:37;;;;;;;6.88;4.60;;;;;;;;;;4970935;28;20337;-61
2022/08/22 11:09:18;;;;;;;7.60;5.38;;;;;;;;;;4927543;28;20045;-60
2022/08/22 11:12:13;;;;;;;8.43;5.55;;;;;;;;;;4971712;28;20325;-60
2022/08/22 11:15:00;;;;;;;8.00;4.95;;;;;;;;;;4970598;28;20475;-60
2022/08/22 11:17:59;;;;;;;6.95;5.20;;;;;;;;;;4952790;28;20352;-61
2022/08/22 11:20:30;;;;;;;7.18;4.80;;;;;;;;;;4970457;28;20391;-60
2022/08/22 11:23:16;;;;;;;7.75;4.70;;;;;;;;;;4970263;28;20348;-60
2022/08/22 11:26:17;;;;;;;5.95;4.70;;;;;;;;;;4970095;28;20453;-60
2022/08/22 11:29:20;;;;;;;5.72;3.92;;;;;;;;;;4969303;28;20456;-60
2022/08/22 11:31:51;;;;;;;7.15;4.95;;;;;;;;;;4904549;28;20380;-60
2022/08/22 11:34:38;;;;;;;7.72;4.55;;;;;;;;;;4952444;28;20461;-60
2022/08/22 11:37:08;;;;;;;7.57;4.82;;;;;;;;;;4970688;28;20494;-60
2022/08/22 11:39:43;;;;;;;5.45;4.25;;;;;;;;;;4969910;28;20333;-60
2022/08/22 11:42:13;;;;;;;6.78;4.90;;;;;;;;;;4969829;28;20057;-60
2022/08/22 11:44:52;;;;;;;6.13;4.50;;;;;;;;;;4971082;28;20350;-60
2022/08/22 11:47:21;;;;;;;7.90;5.80;;;;;;;;;;4987969;28;20387;-60
2022/08/22 11:50:01;;;;;;;7.75;4.75;;;;;;;;;;4988434;28;20494;-61
2022/08/22 11:52:46;;;;;;;6.40;4.75;;;;;;;;;;4987784;28;20459;-62
2022/08/22 11:55:25;;;;;;;7.45;5.38;;;;;;;;;;4989404;28;20059;-60
2022/08/22 11:57:55;;;;;;;5.55;4.18;;;;;;;;;;4989355;28;20413;-60
2022/08/22 12:00:25;;;;;;;5.80;4.55;;;;;;;;;;4987962;28;20390;-60
2022/08/22 12:03:11;;;;;;;6.07;4.70;;;;;;;;;;4988055;28;20447;-61
2022/08/22 12:05:45;;;;;;;6.93;4.47;;;;;;;;;;4989460;28;20467;-60
2022/08/22 12:08:32;;;;;;;6.43;4.38;;;;;;;;;;4989177;28;20439;-60
2022/08/22 12:11:04;;;;;;;6.70;4.72;;;;;;;;;;4989126;28;20538;-60
2022/08/22 12:13:42;;;;;;;5.80;4.07;;;;;;;;;;4987965;28;20383;-60
2022/08/22 12:16:15;;;;;;;6.65;4.55;;;;;;;;;;4988043;28;20029;-60
2022/08/22 12:18:40;;;;;;;5.40;4.45;;;;;;;;;;4988194;28;20356;-60
2022/08/22 12:21:31;;;;;;;6.82;4.35;;;;;;;;;;4989394;28;20329;-60
2022/08/22 12:24:17;;;;;;;6.55;4.97;;;;;;;;;;4989309;28;20499;-60
2022/08/22 12:26:58;;;;;;;6.07;4.63;;;;;;;;;;4987447;28;20463;-60
2022/08/22 12:29:29;;;;;;;7.07;4.20;;;;;;;;;;4987309;28;20444;-61
2022/08/22 12:32:04;;;;;;;6.32;4.40;;;;;;;;;;4988714;28;20032;-60
2022/08/22 12:34:55;;;;;;;7.50;5.03;;;;;;;;;;4988956;28;20114;-60
2022/08/22 12:37:35;;;;;;;6.97;4.65;;;;;;;;;;4987907;28;20471;-60
2022/08/22 12:40:12;;;;;;;6.07;4.32;;;;;;;;;;4986221;28;20535;-60
2022/08/22 12:42:50;;;;;;;5.88;4.18;;;;;;;;;;4989701;28;20340;-60
2022/08/22 12:45:41;;;;;;;6.85;4.70;;;;;;;;;;4990308;28;20446;-60
2022/08/22 12:48:37;;;;;;;5.70;4.25;;;;;;;;;;4979533;28;20356;-61
2022/08/22 12:51:37;;;;;;;4.82;4.07;;;;;;;;;;4989568;28;20515;-60
2022/08/22 12:54:26;;;;;;;5.22;4.22;;;;;;;;;;4989547;28;20053;-60
2022/08/22 12:57:22;;;;;;;6.13;4.28;;;;;;;;;;4988575;28;20329;-60
2022/08/22 12:59:50;;;;;;;5.82;4.00;;;;;;;;;;4988193;28;20359;-61
2022/08/22 13:02:17;;;;;;;;;;;;;;;;;;4987891;28;20055;-61
2022/08/22 13:04:52;;;;;;;5.80;4.35;;;;;;;;;;4986967;28;20003;-60
2022/08/22 13:07:29;;;;;;;6.63;4.30;;;;;;;;;;4986965;28;20025;-60
2022/08/22 13:10:14;;;;;;;9.57;4.20;;;;;;;;;;4987680;28;20424;-61
2022/08/22 13:12:49;;;;;;;5.60;4.22;;;;;;;;;;4973793;28;20095;-60
2022/08/22 13:15:34;;;;;;;5.80;4.35;;;;;;;;;;4988403;28;20574;-60
2022/08/22 13:18:02;;;;;;;6.45;4.20;;;;;;;;;;4987947;28;20418;-61
2022/08/22 13:20:40;;;;;;;;;;;;;;;;;;4987423;28;20061;-60
2022/08/22 13:23:23;;;;;;;7.13;4.40;;;;;;;;;;4986632;28;19912;-60
2022/08/22 13:25:55;;;;;;;6.18;3.97;;;;;;;;;;4987824;28;20051;-60
2022/08/22 13:28:21;;;;;;;5.43;4.00;;;;;;;;;;4988005;28;20033;-61
2022/08/22 13:30:51;;;;;;;6.22;4.15;;;;;;;;;;4986377;28;20343;-60
2022/08/22 13:33:29;;;;;;;5.05;3.60;;;;;;;;;;4988231;28;20814;-61
2022/08/22 13:35:56;;;;;;;;;;;;;;;;;;4987256;28;20386;-61
2022/08/22 13:38:26;;;;;;;6.38;4.20;;;;;;;;;;4986572;28;20327;-61
2022/08/22 13:40:53;;;;;;;5.53;4.20;;;;;;;;;;4988143;28;20444;-60
2022/08/22 13:43:22;;;;;;;6.28;3.80;;;;;;;;;;4986492;28;20033;-60
2022/08/22 13:46:07;;;;;;;5.18;3.97;;;;;;;;;;4987693;28;20442;-60
2022/08/22 13:48:50;;;;;;;5.97;4.47;;;;;;;;;;4988130;28;20343;-60
2022/08/22 13:51:26;;;;;;;6.03;4.32;;;;;;;;;;4988368;28;20044;-60
2022/08/22 13:54:21;;;;;;;5.47;4.00;;;;;;;;;;4991749;28;20336;-60
2022/08/22 13:56:54;;;;;;;5.13;3.95;;;;;;;;;;4989972;28;20466;-60
2022/08/22 13:59:28;;;;;;;6.55;4.00;;;;;;;;;;4992358;28;20028;-60
2022/08/22 14:02:07;;;;;;;5.15;4.57;;;;;;;;;;4991216;28;20447;-60
2022/08/22 14:04:35;;;;;;;5.40;3.70;;;;;;;;;;4989671;28;20424;-60
2022/08/22 14:07:03;;;;;;;5.65;4.05;;;;;;;;;;4992396;28;20447;-61
2022/08/22 14:09:31;;;;;;;5.03;3.78;;;;;;;;;;4991028;28;20104;-61
2022/08/22 14:12:07;;;;;;;5.53;4.13;;;;;;;;;;4990390;28;20033;-60
2022/08/22 14:14:34;;;;;;;7.35;4.35;;;;;;;;;;4990652;28;20427;-60
2022/08/22 14:16:59;;;;;;;5.78;4.07;;;;;;;;;;4991145;28;20335;-60
2022/08/22 14:19:32;;;;;;;4.63;4.15;;;;;;;;;;4989467;28;20339;-60
2022/08/22 14:22:00;;;;;;;7.88;4.15;;;;;;;;;;4989291;28;20432;-60
2022/08/22 14:24:30;;;;;;;5.55;3.50;;;;;;;;;;4990696;28;20052;-60
2022/08/22 14:27:05;;;;;;;6.10;4.70;;;;;;;;;;4991149;28;20439;-60
2022/08/22 14:29:39;;;;;;;5.25;4.05;;;;;;;;;;4989113;28;20483;-63
2022/08/22 14:32:24;;;;;;;5.13;4.53;;;;;;;;;;4988928;28;20028;-61
2022/08/22 14:34:56;;;;;;;5.68;4.20;;;;;;;;;;4976235;28;20047;-60
2022/08/22 14:37:30;;;;;;;5.97;4.32;;;;;;;;;;4991175;28;20059;-60
2022/08/22 14:40:25;;;;;;;5.88;4.40;;;;;;;;;;4988894;28;20422;-60
2022/08/22 14:42:59;;;;;;;5.93;4.30;;;;;;;;;;4988919;28;20463;-60
2022/08/22 14:45:29;;;;;;;5.22;4.10;;;;;;;;;;4991061;28;20476;-60
2022/08/22 14:48:09;;;;;;;5.00;3.97;;;;;;;;;;4990126;28;20448;-60
2022/08/22 14:50:40;;;;;;;5.97;4.22;;;;;;;;;;4988830;28;20455;-60
2022/08/22 14:53:17;;;;;;;4.63;3.50;;;;;;;;;;4990229;28;20506;-59
2022/08/22 14:55:44;;;;;;;5.60;3.70;;;;;;;;;;4990315;28;20443;-60
2022/08/22 14:58:15;;;;;;;9.75;4.32;;;;;;;;;;4988772;28;20373;-60
2022/08/22 15:00:44;;;;;;;5.28;4.20;;;;;;;;;;4988566;28;20123;-60
2022/08/22 15:03:14;;;;;;;;;;;;;;;;;;4989185;28;20451;-61
2022/08/22 15:06:02;;;;;;;5.69;3.94;;;;;;;;;;3693606;28;10003341;-62
2022/08/22 15:08:47;;;;;;;4.85;4.13;;;;;;;;;;4232601;28;10001264;-60
2022/08/22 15:11:23;;;;;;;5.32;4.22;;;;;;;;;;4971191;28;20314;-60
2022/08/22 15:13:56;;;;;;;9.00;4.10;;;;;;;;;;4970042;28;20021;-60
2022/08/22 15:16:27;;;;;;;5.85;4.40;;;;;;;;;;4970402;28;20357;-60
2022/08/22 15:18:52;;;;;;;5.90;4.57;;;;;;;;;;4968413;28;20475;-60
2022/08/22 15:21:19;;;;;;;5.95;4.10;;;;;;;;;;4969990;28;20472;-60
2022/08/22 15:23:46;;;;;;;7.60;3.75;;;;;;;;;;4969816;28;20419;-60
2022/08/22 15:26:23;;;;;;;5.82;4.03;;;;;;;;;;4968265;28;20464;-62
2022/08/22 15:28:57;;;;;;;5.73;4.07;;;;;;;;;;4968337;28;20348;-60
2022/08/22 15:31:23;;;;;;;9.43;4.85;;;;;;;;;;4968441;28;20114;-60
2022/08/22 15:33:49;;;;;;;7.15;4.68;;;;;;;;;;4969714;28;20516;-60
2022/08/22 15:36:14;;;;;;;5.65;4.32;;;;;;;;;;4968014;28;20399;-60
2022/08/22 15:38:46;;;;;;;6.45;4.25;;;;;;;;;;4969378;28;20094;-60
2022/08/22 15:41:20;;;;;;;6.18;4.68;;;;;;;;;;4969528;28;20099;-60
2022/08/22 15:43:49;;;;;;;5.53;4.20;;;;;;;;;;4970862;28;20353;-60
2022/08/22 15:46:28;;;;;;;6.38;3.78;;;;;;;;;;4956015;28;20424;-61
2022/08/22 15:49:07;;;;;;;4.50;3.60;;;;;;;;;;4949762;28;20416;-60